sensor_id;sensor_type;location;lat;lon;timestamp;temperature;humidity
8792;DHT22;4432;50.890;4.744;2023-05-18T00:00:23;7.10;99.90
8792;DHT22;4432;50.890;4.744;2023-05-18T00:02:49;7.10;99.90
8792;DHT22;4432;50.890;4.744;2023-05-18T00:05:15;7.10;99.90
8792;DHT22;4432;50.890;4.744;2023-05-18T00:07:44;7.00;99.90
8792;DHT22;4432;50.890;4.744;2023-05-18T00:10:11;6.90;99.90
8792;DHT22;4432;50.890;4.744;2023-05-18T00:12:37;6.90;99.90
8792;DHT22;4432;50.890;4.744;2023-05-18T00:15:03;6.90;99.90
8792;DHT22;4432;50.890;4.744;2023-05-18T00:17:29;6.90;99.90
8792;DHT22;4432;50.890;4.744;2023-05-18T00:19:56;6.90;99.90
8792;DHT22;4432;50.890;4.744;2023-05-18T00:22:23;6.90;99.90
8792;DHT22;4432;50.890;4.744;2023-05-18T00:24:51;6.90;99.90
8792;DHT22;4432;50.890;4.744;2023-05-18T00:27:16;6.80;99.90
8792;DHT22;4432;50.890;4.744;2023-05-18T00:29:42;6.80;99.90
8792;DHT22;4432;50.890;4.744;2023-05-18T00:32:08;6.70;99.90
8792;DHT22;4432;50.890;4.744;2023-05-18T00:34:34;6.70;99.90
8792;DHT22;4432;50.890;4.744;2023-05-18T00:36:59;6.70;99.90
8792;DHT22;4432;50.890;4.744;2023-05-18T00:39:25;6.70;99.90
8792;DHT22;4432;50.890;4.744;2023-05-18T00:41:51;6.70;99.90
8792;DHT22;4432;50.890;4.744;2023-05-18T00:44:17;6.70;99.90
8792;DHT22;4432;50.890;4.744;2023-05-18T00:46:43;6.70;99.90
8792;DHT22;4432;50.890;4.744;2023-05-18T00:49:09;6.70;99.90
8792;DHT22;4432;50.890;4.744;2023-05-18T00:51:36;6.70;99.90
8792;DHT22;4432;50.890;4.744;2023-05-18T00:54:03;6.70;99.90
8792;DHT22;4432;50.890;4.744;2023-05-18T00:56:30;6.70;99.90
8792;DHT22;4432;50.890;4.744;2023-05-18T00:59:00;6.80;99.90
8792;DHT22;4432;50.890;4.744;2023-05-18T01:01:29;6.70;99.90
8792;DHT22;4432;50.890;4.744;2023-05-18T01:03:56;6.70;99.90
8792;DHT22;4432;50.890;4.744;2023-05-18T01:06:22;6.60;99.90
8792;DHT22;4432;50.890;4.744;2023-05-18T01:08:53;6.50;99.90
8792;DHT22;4432;50.890;4.744;2023-05-18T01:11:48;6.40;99.90
8792;DHT22;4432;50.890;4.744;2023-05-18T01:17:34;6.50;99.90
8792;DHT22;4432;50.890;4.744;2023-05-18T01:22:48;6.50;99.90
8792;DHT22;4432;50.890;4.744;2023-05-18T01:25:34;6.50;99.90
8792;DHT22;4432;50.890;4.744;2023-05-18T01:28:04;6.40;99.90
8792;DHT22;4432;50.890;4.744;2023-05-18T01:30:33;6.40;99.90
8792;DHT22;4432;50.890;4.744;2023-05-18T01:33:02;6.30;99.90
8792;DHT22;4432;50.890;4.744;2023-05-18T01:35:30;6.30;99.90
8792;DHT22;4432;50.890;4.744;2023-05-18T01:37:56;6.30;99.90
8792;DHT22;4432;50.890;4.744;2023-05-18T01:40:22;6.30;99.90
8792;DHT22;4432;50.890;4.744;2023-05-18T01:42:53;6.30;99.90
8792;DHT22;4432;50.890;4.744;2023-05-18T01:45:24;6.20;99.90
8792;DHT22;4432;50.890;4.744;2023-05-18T01:47:55;6.20;99.90
8792;DHT22;4432;50.890;4.744;2023-05-18T01:50:30;6.20;99.90
8792;DHT22;4432;50.890;4.744;2023-05-18T01:53:38;6.20;99.90
8792;DHT22;4432;50.890;4.744;2023-05-18T01:56:08;6.20;99.90
8792;DHT22;4432;50.890;4.744;2023-05-18T01:58:35;6.20;99.90
8792;DHT22;4432;50.890;4.744;2023-05-18T02:01:02;6.20;99.90
8792;DHT22;4432;50.890;4.744;2023-05-18T02:03:31;6.20;99.90
8792;DHT22;4432;50.890;4.744;2023-05-18T02:05:57;6.20;99.90
8792;DHT22;4432;50.890;4.744;2023-05-18T02:08:23;6.20;99.90
8792;DHT22;4432;50.890;4.744;2023-05-18T02:10:49;6.10;99.90
8792;DHT22;4432;50.890;4.744;2023-05-18T02:13:15;6.10;99.90
8792;DHT22;4432;50.890;4.744;2023-05-18T02:15:40;6.00;99.90
8792;DHT22;4432;50.890;4.744;2023-05-18T02:18:06;6.00;99.90
8792;DHT22;4432;50.890;4.744;2023-05-18T02:20:32;6.00;99.90
8792;DHT22;4432;50.890;4.744;2023-05-18T02:22:58;5.90;99.90
8792;DHT22;4432;50.890;4.744;2023-05-18T02:25:24;5.90;99.90
8792;DHT22;4432;50.890;4.744;2023-05-18T02:27:51;5.90;99.90
8792;DHT22;4432;50.890;4.744;2023-05-18T02:30:17;6.00;99.90
8792;DHT22;4432;50.890;4.744;2023-05-18T02:32:43;6.00;99.90
8792;DHT22;4432;50.890;4.744;2023-05-18T02:35:11;6.30;99.90
8792;DHT22;4432;50.890;4.744;2023-05-18T02:37:37;6.40;99.90
8792;DHT22;4432;50.890;4.744;2023-05-18T02:40:12;6.30;99.90
8792;DHT22;4432;50.890;4.744;2023-05-18T02:42:43;6.20;99.90
8792;DHT22;4432;50.890;4.744;2023-05-18T02:45:10;6.20;99.90
8792;DHT22;4432;50.890;4.744;2023-05-18T02:47:36;6.20;99.90
8792;DHT22;4432;50.890;4.744;2023-05-18T02:50:01;6.20;99.90
8792;DHT22;4432;50.890;4.744;2023-05-18T02:52:27;6.10;99.90
8792;DHT22;4432;50.890;4.744;2023-05-18T02:54:53;6.00;99.90
8792;DHT22;4432;50.890;4.744;2023-05-18T02:57:20;6.00;99.90
8792;DHT22;4432;50.890;4.744;2023-05-18T02:59:46;6.00;99.90
8792;DHT22;4432;50.890;4.744;2023-05-18T03:02:12;6.10;99.90
8792;DHT22;4432;50.890;4.744;2023-05-18T03:04:39;6.10;99.90
8792;DHT22;4432;50.890;4.744;2023-05-18T03:07:04;6.10;99.90
8792;DHT22;4432;50.890;4.744;2023-05-18T03:09:31;6.00;99.90
8792;DHT22;4432;50.890;4.744;2023-05-18T03:11:57;6.10;99.90
8792;DHT22;4432;50.890;4.744;2023-05-18T03:14:23;6.00;99.90
8792;DHT22;4432;50.890;4.744;2023-05-18T03:16:49;6.00;99.90
8792;DHT22;4432;50.890;4.744;2023-05-18T03:19:19;6.00;99.90
8792;DHT22;4432;50.890;4.744;2023-05-18T03:21:45;6.00;99.90
8792;DHT22;4432;50.890;4.744;2023-05-18T03:24:11;6.00;99.90
8792;DHT22;4432;50.890;4.744;2023-05-18T03:26:39;6.10;99.90
8792;DHT22;4432;50.890;4.744;2023-05-18T03:29:09;6.10;99.90
8792;DHT22;4432;50.890;4.744;2023-05-18T03:31:35;6.10;99.90
8792;DHT22;4432;50.890;4.744;2023-05-18T03:34:01;6.10;99.90
8792;DHT22;4432;50.890;4.744;2023-05-18T03:36:27;6.10;99.90
8792;DHT22;4432;50.890;4.744;2023-05-18T03:38:53;6.10;99.90
8792;DHT22;4432;50.890;4.744;2023-05-18T03:41:18;6.20;99.90
8792;DHT22;4432;50.890;4.744;2023-05-18T03:43:44;6.20;99.90
8792;DHT22;4432;50.890;4.744;2023-05-18T03:46:10;6.20;99.90
8792;DHT22;4432;50.890;4.744;2023-05-18T03:48:36;6.20;99.90
8792;DHT22;4432;50.890;4.744;2023-05-18T03:51:01;6.20;99.90
8792;DHT22;4432;50.890;4.744;2023-05-18T03:53:27;6.10;99.90
8792;DHT22;4432;50.890;4.744;2023-05-18T03:55:54;6.10;99.90
8792;DHT22;4432;50.890;4.744;2023-05-18T03:58:19;6.00;99.90
8792;DHT22;4432;50.890;4.744;2023-05-18T04:00:46;5.90;99.90
8792;DHT22;4432;50.890;4.744;2023-05-18T04:03:11;5.80;99.90
8792;DHT22;4432;50.890;4.744;2023-05-18T04:05:40;5.70;99.90
8792;DHT22;4432;50.890;4.744;2023-05-18T04:08:08;5.80;99.90
8792;DHT22;4432;50.890;4.744;2023-05-18T04:10:35;5.80;99.90
8792;DHT22;4432;50.890;4.744;2023-05-18T04:13:01;5.70;99.90
8792;DHT22;4432;50.890;4.744;2023-05-18T04:15:26;5.60;99.90
8792;DHT22;4432;50.890;4.744;2023-05-18T04:17:52;5.60;99.90
8792;DHT22;4432;50.890;4.744;2023-05-18T04:20:18;5.50;99.90
8792;DHT22;4432;50.890;4.744;2023-05-18T04:22:47;5.60;99.90
8792;DHT22;4432;50.890;4.744;2023-05-18T04:25:16;5.60;99.90
8792;DHT22;4432;50.890;4.744;2023-05-18T04:27:42;5.60;99.90
8792;DHT22;4432;50.890;4.744;2023-05-18T04:30:10;5.60;99.90
8792;DHT22;4432;50.890;4.744;2023-05-18T04:32:37;5.60;99.90
8792;DHT22;4432;50.890;4.744;2023-05-18T04:35:05;5.60;99.90
8792;DHT22;4432;50.890;4.744;2023-05-18T04:37:32;5.60;99.90
8792;DHT22;4432;50.890;4.744;2023-05-18T04:39:58;5.60;99.90
8792;DHT22;4432;50.890;4.744;2023-05-18T04:42:29;5.70;99.90
8792;DHT22;4432;50.890;4.744;2023-05-18T04:44:55;5.70;99.90
8792;DHT22;4432;50.890;4.744;2023-05-18T04:47:21;5.80;99.90
8792;DHT22;4432;50.890;4.744;2023-05-18T04:49:49;5.90;99.90
8792;DHT22;4432;50.890;4.744;2023-05-18T04:52:17;6.00;99.90
8792;DHT22;4432;50.890;4.744;2023-05-18T04:54:44;6.00;99.90
8792;DHT22;4432;50.890;4.744;2023-05-18T04:57:10;6.10;99.90
8792;DHT22;4432;50.890;4.744;2023-05-18T04:59:36;6.30;99.90
8792;DHT22;4432;50.890;4.744;2023-05-18T05:02:04;6.50;99.90
8792;DHT22;4432;50.890;4.744;2023-05-18T05:04:30;6.60;99.90
8792;DHT22;4432;50.890;4.744;2023-05-18T05:06:56;6.80;99.90
8792;DHT22;4432;50.890;4.744;2023-05-18T05:09:22;6.90;99.90
8792;DHT22;4432;50.890;4.744;2023-05-18T05:11:47;7.00;99.90
8792;DHT22;4432;50.890;4.744;2023-05-18T05:14:13;7.20;99.90
8792;DHT22;4432;50.890;4.744;2023-05-18T05:16:39;7.20;99.90
8792;DHT22;4432;50.890;4.744;2023-05-18T05:19:05;7.30;99.90
8792;DHT22;4432;50.890;4.744;2023-05-18T05:21:31;7.40;99.90
8792;DHT22;4432;50.890;4.744;2023-05-18T05:23:57;7.50;99.90
8792;DHT22;4432;50.890;4.744;2023-05-18T05:26:22;7.60;99.90
8792;DHT22;4432;50.890;4.744;2023-05-18T05:28:48;7.80;99.90
8792;DHT22;4432;50.890;4.744;2023-05-18T05:31:14;7.90;99.90
8792;DHT22;4432;50.890;4.744;2023-05-18T05:33:40;8.00;99.90
8792;DHT22;4432;50.890;4.744;2023-05-18T05:36:06;8.00;99.90
8792;DHT22;4432;50.890;4.744;2023-05-18T05:38:33;8.20;99.90
8792;DHT22;4432;50.890;4.744;2023-05-18T05:41:00;8.20;99.90
8792;DHT22;4432;50.890;4.744;2023-05-18T05:43:26;8.20;99.90
8792;DHT22;4432;50.890;4.744;2023-05-18T05:45:51;8.30;99.90
8792;DHT22;4432;50.890;4.744;2023-05-18T05:48:17;8.40;99.90
8792;DHT22;4432;50.890;4.744;2023-05-18T05:50:43;8.50;99.90
8792;DHT22;4432;50.890;4.744;2023-05-18T05:53:08;8.60;99.90
8792;DHT22;4432;50.890;4.744;2023-05-18T05:55:35;8.60;99.90
8792;DHT22;4432;50.890;4.744;2023-05-18T05:58:06;8.60;99.90
8792;DHT22;4432;50.890;4.744;2023-05-18T06:00:32;8.70;99.90
8792;DHT22;4432;50.890;4.744;2023-05-18T06:02:57;8.70;99.90
8792;DHT22;4432;50.890;4.744;2023-05-18T06:05:23;8.80;99.90
8792;DHT22;4432;50.890;4.744;2023-05-18T06:07:49;9.00;99.90
8792;DHT22;4432;50.890;4.744;2023-05-18T06:10:15;9.00;99.90
8792;DHT22;4432;50.890;4.744;2023-05-18T06:12:41;8.90;99.90
8792;DHT22;4432;50.890;4.744;2023-05-18T06:15:07;8.80;99.90
8792;DHT22;4432;50.890;4.744;2023-05-18T06:17:33;9.00;99.90
8792;DHT22;4432;50.890;4.744;2023-05-18T06:19:59;9.30;99.90
8792;DHT22;4432;50.890;4.744;2023-05-18T06:22:25;9.60;99.90
8792;DHT22;4432;50.890;4.744;2023-05-18T06:24:50;9.80;99.90
8792;DHT22;4432;50.890;4.744;2023-05-18T06:27:17;9.80;99.90
8792;DHT22;4432;50.890;4.744;2023-05-18T06:29:43;9.80;99.90
8792;DHT22;4432;50.890;4.744;2023-05-18T06:32:11;10.10;99.90
8792;DHT22;4432;50.890;4.744;2023-05-18T06:34:37;10.20;99.90
8792;DHT22;4432;50.890;4.744;2023-05-18T06:37:03;10.30;99.90
8792;DHT22;4432;50.890;4.744;2023-05-18T06:39:29;10.60;99.90
8792;DHT22;4432;50.890;4.744;2023-05-18T06:41:55;10.70;99.90
8792;DHT22;4432;50.890;4.744;2023-05-18T06:44:21;10.90;99.90
8792;DHT22;4432;50.890;4.744;2023-05-18T06:46:47;10.90;99.90
8792;DHT22;4432;50.890;4.744;2023-05-18T06:49:13;10.80;99.90
8792;DHT22;4432;50.890;4.744;2023-05-18T06:51:39;11.00;99.90
8792;DHT22;4432;50.890;4.744;2023-05-18T06:54:06;10.80;99.90
8792;DHT22;4432;50.890;4.744;2023-05-18T06:56:32;11.00;99.90
8792;DHT22;4432;50.890;4.744;2023-05-18T06:58:58;10.90;99.90
8792;DHT22;4432;50.890;4.744;2023-05-18T07:01:24;10.90;99.90
8792;DHT22;4432;50.890;4.744;2023-05-18T07:03:50;10.80;99.90
8792;DHT22;4432;50.890;4.744;2023-05-18T07:06:15;10.80;99.90
8792;DHT22;4432;50.890;4.744;2023-05-18T07:08:43;10.90;99.90
8792;DHT22;4432;50.890;4.744;2023-05-18T07:11:08;11.00;99.90
8792;DHT22;4432;50.890;4.744;2023-05-18T07:13:34;11.30;99.90
8792;DHT22;4432;50.890;4.744;2023-05-18T07:16:00;11.40;99.90
8792;DHT22;4432;50.890;4.744;2023-05-18T07:18:26;11.50;99.90
8792;DHT22;4432;50.890;4.744;2023-05-18T07:20:52;11.60;99.90
8792;DHT22;4432;50.890;4.744;2023-05-18T07:23:18;11.70;99.90
8792;DHT22;4432;50.890;4.744;2023-05-18T07:25:44;11.80;99.90
8792;DHT22;4432;50.890;4.744;2023-05-18T07:28:09;11.90;99.90
8792;DHT22;4432;50.890;4.744;2023-05-18T07:30:35;12.10;99.90
8792;DHT22;4432;50.890;4.744;2023-05-18T07:33:01;12.00;99.90
8792;DHT22;4432;50.890;4.744;2023-05-18T07:35:27;11.80;99.90
8792;DHT22;4432;50.890;4.744;2023-05-18T07:37:53;12.00;99.90
8792;DHT22;4432;50.890;4.744;2023-05-18T07:40:19;12.30;99.90
8792;DHT22;4432;50.890;4.744;2023-05-18T07:42:45;12.30;99.90
8792;DHT22;4432;50.890;4.744;2023-05-18T07:45:11;12.30;99.90
8792;DHT22;4432;50.890;4.744;2023-05-18T07:47:37;12.50;99.90
8792;DHT22;4432;50.890;4.744;2023-05-18T07:50:03;12.60;99.90
8792;DHT22;4432;50.890;4.744;2023-05-18T07:52:29;12.40;99.90
8792;DHT22;4432;50.890;4.744;2023-05-18T07:54:55;12.50;99.90
8792;DHT22;4432;50.890;4.744;2023-05-18T07:57:22;12.60;99.90
8792;DHT22;4432;50.890;4.744;2023-05-18T07:59:48;12.50;99.90
8792;DHT22;4432;50.890;4.744;2023-05-18T08:02:13;12.50;99.90
8792;DHT22;4432;50.890;4.744;2023-05-18T08:04:41;12.40;99.90
8792;DHT22;4432;50.890;4.744;2023-05-18T08:07:07;12.40;99.90
8792;DHT22;4432;50.890;4.744;2023-05-18T08:09:33;12.80;99.90
8792;DHT22;4432;50.890;4.744;2023-05-18T08:11:59;13.10;99.90
8792;DHT22;4432;50.890;4.744;2023-05-18T08:14:25;13.20;99.90
8792;DHT22;4432;50.890;4.744;2023-05-18T08:16:51;13.30;99.90
8792;DHT22;4432;50.890;4.744;2023-05-18T08:19:17;13.30;99.90
8792;DHT22;4432;50.890;4.744;2023-05-18T08:21:43;13.10;99.90
8792;DHT22;4432;50.890;4.744;2023-05-18T08:24:10;13.20;99.90
8792;DHT22;4432;50.890;4.744;2023-05-18T08:26:36;13.10;99.90
8792;DHT22;4432;50.890;4.744;2023-05-18T08:29:02;13.30;99.90
8792;DHT22;4432;50.890;4.744;2023-05-18T08:31:38;13.30;99.90
8792;DHT22;4432;50.890;4.744;2023-05-18T08:34:05;13.30;99.90
8792;DHT22;4432;50.890;4.744;2023-05-18T08:36:33;13.40;99.90
8792;DHT22;4432;50.890;4.744;2023-05-18T08:38:59;13.60;99.90
8792;DHT22;4432;50.890;4.744;2023-05-18T08:41:31;13.50;99.90
8792;DHT22;4432;50.890;4.744;2023-05-18T08:44:05;13.40;99.90
8792;DHT22;4432;50.890;4.744;2023-05-18T08:46:34;13.50;99.90
8792;DHT22;4432;50.890;4.744;2023-05-18T08:49:04;13.80;99.90
8792;DHT22;4432;50.890;4.744;2023-05-18T08:51:35;14.20;99.90
8792;DHT22;4432;50.890;4.744;2023-05-18T08:54:02;14.40;99.90
8792;DHT22;4432;50.890;4.744;2023-05-18T08:56:31;14.40;99.90
8792;DHT22;4432;50.890;4.744;2023-05-18T08:58:58;14.40;99.90
8792;DHT22;4432;50.890;4.744;2023-05-18T09:01:28;14.60;99.90
8792;DHT22;4432;50.890;4.744;2023-05-18T09:03:55;14.80;99.90
8792;DHT22;4432;50.890;4.744;2023-05-18T09:06:22;15.10;99.90
8792;DHT22;4432;50.890;4.744;2023-05-18T09:08:56;15.10;99.90
8792;DHT22;4432;50.890;4.744;2023-05-18T09:11:24;15.10;99.90
8792;DHT22;4432;50.890;4.744;2023-05-18T09:13:50;15.80;99.90
8792;DHT22;4432;50.890;4.744;2023-05-18T09:16:17;16.30;99.90
8792;DHT22;4432;50.890;4.744;2023-05-18T09:18:43;16.10;99.90
8792;DHT22;4432;50.890;4.744;2023-05-18T09:21:10;16.50;99.50
8792;DHT22;4432;50.890;4.744;2023-05-18T09:23:38;16.50;99.90
8792;DHT22;4432;50.890;4.744;2023-05-18T09:26:04;16.50;99.90
8792;DHT22;4432;50.890;4.744;2023-05-18T09:28:40;16.60;99.90
8792;DHT22;4432;50.890;4.744;2023-05-18T09:31:07;16.10;99.90
8792;DHT22;4432;50.890;4.744;2023-05-18T09:33:38;15.30;99.90
8792;DHT22;4432;50.890;4.744;2023-05-18T09:36:08;15.60;99.90
8792;DHT22;4432;50.890;4.744;2023-05-18T09:38:39;16.10;99.90
8792;DHT22;4432;50.890;4.744;2023-05-18T09:41:12;16.40;99.90
8792;DHT22;4432;50.890;4.744;2023-05-18T09:43:39;16.70;99.90
8792;DHT22;4432;50.890;4.744;2023-05-18T09:46:06;16.20;99.90
8792;DHT22;4432;50.890;4.744;2023-05-18T09:48:35;15.40;99.90
8792;DHT22;4432;50.890;4.744;2023-05-18T09:51:03;15.00;99.90
8792;DHT22;4432;50.890;4.744;2023-05-18T09:53:28;15.30;99.90
8792;DHT22;4432;50.890;4.744;2023-05-18T09:55:54;16.10;99.90
8792;DHT22;4432;50.890;4.744;2023-05-18T09:58:20;17.00;99.90
8792;DHT22;4432;50.890;4.744;2023-05-18T10:00:47;17.50;99.90
8792;DHT22;4432;50.890;4.744;2023-05-18T10:03:20;17.60;99.90
8792;DHT22;4432;50.890;4.744;2023-05-18T10:05:46;17.40;99.90
8792;DHT22;4432;50.890;4.744;2023-05-18T10:08:13;16.90;99.90
8792;DHT22;4432;50.890;4.744;2023-05-18T10:10:42;16.80;99.90
8792;DHT22;4432;50.890;4.744;2023-05-18T10:13:17;17.10;99.90
8792;DHT22;4432;50.890;4.744;2023-05-18T10:15:54;17.10;99.90
8792;DHT22;4432;50.890;4.744;2023-05-18T10:18:24;16.60;99.90
8792;DHT22;4432;50.890;4.744;2023-05-18T10:20:52;16.90;99.90
8792;DHT22;4432;50.890;4.744;2023-05-18T10:23:19;17.10;99.90
8792;DHT22;4432;50.890;4.744;2023-05-18T10:25:47;16.80;99.90
8792;DHT22;4432;50.890;4.744;2023-05-18T10:28:21;17.00;99.90
8792;DHT22;4432;50.890;4.744;2023-05-18T10:30:52;16.70;99.90
8792;DHT22;4432;50.890;4.744;2023-05-18T10:33:23;16.40;99.90
8792;DHT22;4432;50.890;4.744;2023-05-18T10:35:50;16.40;99.90
8792;DHT22;4432;50.890;4.744;2023-05-18T10:38:26;16.30;99.90
8792;DHT22;4432;50.890;4.744;2023-05-18T10:40:55;16.60;99.90
8792;DHT22;4432;50.890;4.744;2023-05-18T10:43:22;16.30;99.90
8792;DHT22;4432;50.890;4.744;2023-05-18T10:45:53;16.40;99.90
8792;DHT22;4432;50.890;4.744;2023-05-18T10:48:20;16.40;99.90
8792;DHT22;4432;50.890;4.744;2023-05-18T10:50:47;16.70;99.90
8792;DHT22;4432;50.890;4.744;2023-05-18T10:53:16;16.30;99.90
8792;DHT22;4432;50.890;4.744;2023-05-18T10:55:42;16.60;99.90
8792;DHT22;4432;50.890;4.744;2023-05-18T10:58:11;17.00;99.90
8792;DHT22;4432;50.890;4.744;2023-05-18T11:00:40;17.00;99.90
8792;DHT22;4432;50.890;4.744;2023-05-18T11:03:10;17.50;99.90
8792;DHT22;4432;50.890;4.744;2023-05-18T11:05:38;17.30;99.90
8792;DHT22;4432;50.890;4.744;2023-05-18T11:08:05;17.10;99.90
8792;DHT22;4432;50.890;4.744;2023-05-18T11:10:43;17.30;99.90
8792;DHT22;4432;50.890;4.744;2023-05-18T11:13:12;17.20;99.90
8792;DHT22;4432;50.890;4.744;2023-05-18T11:26:41;16.60;99.90
8792;DHT22;4432;50.890;4.744;2023-05-18T11:29:18;16.50;99.90
8792;DHT22;4432;50.890;4.744;2023-05-18T11:32:03;17.00;99.90
8792;DHT22;4432;50.890;4.744;2023-05-18T11:34:45;17.20;99.90
8792;DHT22;4432;50.890;4.744;2023-05-18T11:37:15;17.00;99.90
8792;DHT22;4432;50.890;4.744;2023-05-18T11:39:42;16.60;99.90
8792;DHT22;4432;50.890;4.744;2023-05-18T11:42:17;16.40;99.90
8792;DHT22;4432;50.890;4.744;2023-05-18T11:44:53;16.60;99.90
8792;DHT22;4432;50.890;4.744;2023-05-18T11:47:28;16.50;99.90
8792;DHT22;4432;50.890;4.744;2023-05-18T11:49:56;16.30;99.90
8792;DHT22;4432;50.890;4.744;2023-05-18T11:52:23;16.50;99.90
8792;DHT22;4432;50.890;4.744;2023-05-18T11:54:57;16.80;99.90
8792;DHT22;4432;50.890;4.744;2023-05-18T11:57:25;16.70;99.90
8792;DHT22;4432;50.890;4.744;2023-05-18T11:59:56;16.60;99.90
8792;DHT22;4432;50.890;4.744;2023-05-18T12:02:29;16.80;99.90
8792;DHT22;4432;50.890;4.744;2023-05-18T12:04:57;17.20;99.90
8792;DHT22;4432;50.890;4.744;2023-05-18T12:07:25;17.10;99.90
8792;DHT22;4432;50.890;4.744;2023-05-18T12:09:57;16.70;99.90
8792;DHT22;4432;50.890;4.744;2023-05-18T12:12:23;16.90;99.90
8792;DHT22;4432;50.890;4.744;2023-05-18T12:14:58;17.00;99.90
8792;DHT22;4432;50.890;4.744;2023-05-18T12:20:13;17.20;99.90
8792;DHT22;4432;50.890;4.744;2023-05-18T12:22:40;17.20;99.90
8792;DHT22;4432;50.890;4.744;2023-05-18T12:25:07;17.20;99.90
8792;DHT22;4432;50.890;4.744;2023-05-18T12:27:40;17.40;99.90
8792;DHT22;4432;50.890;4.744;2023-05-18T12:30:15;17.50;99.90
8792;DHT22;4432;50.890;4.744;2023-05-18T12:33:00;17.20;99.90
8792;DHT22;4432;50.890;4.744;2023-05-18T12:35:29;17.10;99.90
8792;DHT22;4432;50.890;4.744;2023-05-18T12:37:56;17.20;99.90
8792;DHT22;4432;50.890;4.744;2023-05-18T12:40:26;17.10;99.90
8792;DHT22;4432;50.890;4.744;2023-05-18T12:42:54;17.10;99.90
8792;DHT22;4432;50.890;4.744;2023-05-18T12:45:22;17.40;99.90
8792;DHT22;4432;50.890;4.744;2023-05-18T12:47:50;17.40;99.90
8792;DHT22;4432;50.890;4.744;2023-05-18T12:50:23;17.60;99.90
8792;DHT22;4432;50.890;4.744;2023-05-18T12:52:51;17.60;99.90
8792;DHT22;4432;50.890;4.744;2023-05-18T12:55:18;17.80;99.90
8792;DHT22;4432;50.890;4.744;2023-05-18T12:58:04;17.90;99.90
8792;DHT22;4432;50.890;4.744;2023-05-18T13:00:36;17.10;99.90
8792;DHT22;4432;50.890;4.744;2023-05-18T13:03:10;17.00;99.90
8792;DHT22;4432;50.890;4.744;2023-05-18T13:05:36;17.30;99.90
8792;DHT22;4432;50.890;4.744;2023-05-18T13:08:03;17.60;99.90
8792;DHT22;4432;50.890;4.744;2023-05-18T13:10:30;17.80;99.90
8792;DHT22;4432;50.890;4.744;2023-05-18T13:12:59;18.20;99.90
8792;DHT22;4432;50.890;4.744;2023-05-18T13:15:36;18.20;99.90
8792;DHT22;4432;50.890;4.744;2023-05-18T13:18:02;18.20;99.90
8792;DHT22;4432;50.890;4.744;2023-05-18T13:23:15;17.50;99.90
8792;DHT22;4432;50.890;4.744;2023-05-18T13:25:42;17.70;99.90
8792;DHT22;4432;50.890;4.744;2023-05-18T13:28:09;17.40;99.90
8792;DHT22;4432;50.890;4.744;2023-05-18T13:30:35;17.40;99.90
8792;DHT22;4432;50.890;4.744;2023-05-18T13:33:02;17.70;99.90
8792;DHT22;4432;50.890;4.744;2023-05-18T13:35:28;18.00;99.90
8792;DHT22;4432;50.890;4.744;2023-05-18T13:37:54;18.10;99.90
8792;DHT22;4432;50.890;4.744;2023-05-18T13:40:21;18.00;99.90
8792;DHT22;4432;50.890;4.744;2023-05-18T13:42:50;17.80;99.90
8792;DHT22;4432;50.890;4.744;2023-05-18T13:45:16;17.80;99.90
8792;DHT22;4432;50.890;4.744;2023-05-18T13:47:42;17.60;99.90
8792;DHT22;4432;50.890;4.744;2023-05-18T13:50:10;17.60;99.90
8792;DHT22;4432;50.890;4.744;2023-05-18T13:52:36;17.40;99.90
8792;DHT22;4432;50.890;4.744;2023-05-18T13:55:06;17.50;99.90
8792;DHT22;4432;50.890;4.744;2023-05-18T13:57:32;17.30;99.90
8792;DHT22;4432;50.890;4.744;2023-05-18T13:59:58;16.90;99.90
8792;DHT22;4432;50.890;4.744;2023-05-18T14:02:27;17.20;99.90
8792;DHT22;4432;50.890;4.744;2023-05-18T14:04:53;17.50;99.90
8792;DHT22;4432;50.890;4.744;2023-05-18T14:07:19;17.60;99.90
8792;DHT22;4432;50.890;4.744;2023-05-18T14:09:45;17.30;99.90
8792;DHT22;4432;50.890;4.744;2023-05-18T14:12:11;17.60;99.90
8792;DHT22;4432;50.890;4.744;2023-05-18T14:14:38;17.70;99.90
8792;DHT22;4432;50.890;4.744;2023-05-18T14:17:05;17.70;99.90
8792;DHT22;4432;50.890;4.744;2023-05-18T14:19:31;17.60;99.90
8792;DHT22;4432;50.890;4.744;2023-05-18T14:21:57;17.60;99.90
8792;DHT22;4432;50.890;4.744;2023-05-18T14:24:23;17.80;99.90
8792;DHT22;4432;50.890;4.744;2023-05-18T14:26:48;17.40;99.90
8792;DHT22;4432;50.890;4.744;2023-05-18T14:29:15;17.00;99.90
8792;DHT22;4432;50.890;4.744;2023-05-18T14:31:41;16.80;99.90
8792;DHT22;4432;50.890;4.744;2023-05-18T14:34:06;17.00;99.90
8792;DHT22;4432;50.890;4.744;2023-05-18T14:36:32;17.30;99.90
8792;DHT22;4432;50.890;4.744;2023-05-18T14:38:58;17.30;99.90
8792;DHT22;4432;50.890;4.744;2023-05-18T14:41:24;17.00;99.90
8792;DHT22;4432;50.890;4.744;2023-05-18T14:43:49;17.00;99.90
8792;DHT22;4432;50.890;4.744;2023-05-18T14:46:17;17.00;99.90
8792;DHT22;4432;50.890;4.744;2023-05-18T14:48:43;17.20;99.90
8792;DHT22;4432;50.890;4.744;2023-05-18T14:51:09;17.40;99.90
8792;DHT22;4432;50.890;4.744;2023-05-18T14:53:34;17.10;99.90
8792;DHT22;4432;50.890;4.744;2023-05-18T14:56:00;17.00;99.90
8792;DHT22;4432;50.890;4.744;2023-05-18T14:58:31;16.90;99.90
8792;DHT22;4432;50.890;4.744;2023-05-18T15:00:56;16.90;99.90
8792;DHT22;4432;50.890;4.744;2023-05-18T15:03:22;16.80;99.90
8792;DHT22;4432;50.890;4.744;2023-05-18T15:05:48;16.70;99.90
8792;DHT22;4432;50.890;4.744;2023-05-18T15:08:14;16.80;99.90
8792;DHT22;4432;50.890;4.744;2023-05-18T15:10:39;16.80;99.90
8792;DHT22;4432;50.890;4.744;2023-05-18T15:13:05;16.90;99.90
8792;DHT22;4432;50.890;4.744;2023-05-18T15:15:31;16.90;99.90
8792;DHT22;4432;50.890;4.744;2023-05-18T15:17:57;16.90;99.90
8792;DHT22;4432;50.890;4.744;2023-05-18T15:20:23;17.00;99.90
8792;DHT22;4432;50.890;4.744;2023-05-18T15:22:49;17.00;99.90
8792;DHT22;4432;50.890;4.744;2023-05-18T15:25:15;17.20;99.90
8792;DHT22;4432;50.890;4.744;2023-05-18T15:27:41;17.50;99.90
8792;DHT22;4432;50.890;4.744;2023-05-18T15:30:07;17.40;99.90
8792;DHT22;4432;50.890;4.744;2023-05-18T15:32:40;17.30;99.90
8792;DHT22;4432;50.890;4.744;2023-05-18T15:35:07;17.30;99.90
8792;DHT22;4432;50.890;4.744;2023-05-18T15:37:33;17.30;99.90
8792;DHT22;4432;50.890;4.744;2023-05-18T15:39:59;17.40;99.90
8792;DHT22;4432;50.890;4.744;2023-05-18T15:42:25;17.50;99.90
8792;DHT22;4432;50.890;4.744;2023-05-18T15:44:51;17.40;99.90
8792;DHT22;4432;50.890;4.744;2023-05-18T15:47:16;17.40;99.90
8792;DHT22;4432;50.890;4.744;2023-05-18T15:49:42;17.40;99.90
8792;DHT22;4432;50.890;4.744;2023-05-18T15:52:08;17.20;99.90
8792;DHT22;4432;50.890;4.744;2023-05-18T15:54:35;17.10;99.90
8792;DHT22;4432;50.890;4.744;2023-05-18T15:57:01;17.10;99.90
8792;DHT22;4432;50.890;4.744;2023-05-18T15:59:27;17.10;99.90
8792;DHT22;4432;50.890;4.744;2023-05-18T16:01:53;17.20;99.90
8792;DHT22;4432;50.890;4.744;2023-05-18T16:04:18;17.20;99.90
8792;DHT22;4432;50.890;4.744;2023-05-18T16:06:44;17.00;99.90
8792;DHT22;4432;50.890;4.744;2023-05-18T16:09:10;16.90;99.90
8792;DHT22;4432;50.890;4.744;2023-05-18T16:11:36;17.00;99.90
8792;DHT22;4432;50.890;4.744;2023-05-18T16:14:03;17.10;99.90
8792;DHT22;4432;50.890;4.744;2023-05-18T16:16:29;17.20;99.90
8792;DHT22;4432;50.890;4.744;2023-05-18T16:18:55;17.30;99.90
8792;DHT22;4432;50.890;4.744;2023-05-18T16:21:21;17.30;99.90
8792;DHT22;4432;50.890;4.744;2023-05-18T16:23:47;17.20;99.90
8792;DHT22;4432;50.890;4.744;2023-05-18T16:26:13;17.20;99.90
8792;DHT22;4432;50.890;4.744;2023-05-18T16:28:39;16.90;99.90
8792;DHT22;4432;50.890;4.744;2023-05-18T16:31:05;16.80;99.90